createdAt,value
2019-05-06T00:01:04.793Z,15.05
2019-05-06T00:03:35.733Z,15.75
2019-05-06T00:06:08.412Z,17.27
2019-05-06T00:08:39.097Z,18.23
2019-05-06T00:11:09.855Z,17.85
2019-05-06T00:13:40.654Z,18.65
2019-05-06T00:16:14.373Z,19.27
2019-05-06T00:18:45.015Z,18.60
2019-05-06T00:21:15.896Z,18.92
2019-05-06T00:23:48.882Z,17.55
2019-05-06T00:26:21.553Z,16.23
2019-05-06T00:29:04.507Z,16.23
2019-05-06T00:31:35.473Z,15.88
2019-05-06T00:34:07.735Z,15.20
2019-05-06T00:36:38.261Z,16.35
2019-05-06T00:39:14.913Z,15.35
2019-05-06T00:41:47.088Z,15.98
2019-05-06T00:44:17.841Z,15.85
2019-05-06T00:46:48.520Z,15.25
2019-05-06T00:49:19.241Z,14.83
2019-05-06T00:51:54.891Z,13.95
2019-05-06T00:54:27.273Z,14.13
2019-05-06T00:56:58.006Z,13.45
2019-05-06T00:59:28.662Z,13.30
2019-05-06T01:01:59.638Z,15.70
2019-05-06T01:04:33.872Z,14.13
2019-05-06T01:09:56.854Z,13.22
2019-05-06T01:12:29.928Z,12.28
2019-05-06T01:15:03.846Z,12.78
2019-05-06T01:17:34.666Z,12.85
2019-05-06T01:20:10.743Z,12.65
2019-05-06T01:22:43.513Z,13.20
2019-05-06T01:25:14.925Z,13.08
2019-05-06T01:27:45.811Z,12.95
2019-05-06T01:30:21.194Z,12.60
2019-05-06T01:35:45.381Z,14.23
2019-05-06T01:38:24.057Z,13.95
2019-05-06T01:40:55.539Z,13.43
2019-05-06T01:43:30.964Z,13.98
2019-05-06T01:46:01.673Z,13.08
2019-05-06T01:48:51.082Z,13.78
2019-05-06T01:51:24.883Z,12.60
2019-05-06T01:53:56.010Z,13.28
2019-05-06T01:56:28.991Z,13.13
2019-05-06T01:59:04.740Z,13.62
2019-05-06T02:05:20.791Z,13.75
2019-05-06T02:07:54.482Z,14.15
2019-05-06T02:10:24.270Z,13.08
2019-05-06T02:12:56.856Z,13.88
2019-05-06T02:15:29.985Z,12.85
2019-05-06T02:20:58.345Z,13.60
2019-05-06T02:26:27.484Z,13.55
2019-05-06T02:29:06.462Z,14.15
2019-05-06T02:34:54.320Z,13.72
2019-05-06T02:37:41.162Z,13.45
2019-05-06T02:40:24.628Z,14.25
2019-05-06T02:43:02.992Z,13.03
2019-05-06T02:45:33.438Z,14.05
2019-05-06T02:48:14.335Z,13.13
2019-05-06T02:50:47.456Z,14.28
2019-05-06T02:53:23.420Z,13.60
2019-05-06T02:55:53.392Z,13.50
2019-05-06T02:58:25.335Z,13.78
2019-05-06T03:00:56.115Z,13.18
2019-05-06T03:03:27.763Z,13.68
2019-05-06T03:05:58.447Z,14.68
2019-05-06T03:08:29.181Z,14.23
2019-05-06T03:11:03.647Z,14.25
2019-05-06T03:13:34.181Z,13.80
2019-05-06T03:16:05.971Z,14.38
2019-05-06T03:18:36.896Z,15.48
2019-05-06T03:21:13.858Z,14.50
2019-05-06T03:23:46.017Z,14.07
2019-05-06T03:26:16.876Z,14.80
2019-05-06T03:28:47.670Z,14.43
2019-05-06T03:31:18.686Z,14.38
2019-05-06T03:34:09.210Z,14.07
2019-05-06T03:36:27.085Z,14.75
2019-05-06T03:38:55.753Z,14.38
2019-05-06T03:41:26.756Z,14.95
2019-05-06T03:43:57.644Z,17.02
2019-05-06T03:46:29.894Z,13.90
2019-05-06T03:49:03.702Z,13.48
2019-05-06T03:51:34.527Z,30.27
2019-05-06T03:54:06.109Z,24.30
2019-05-06T03:56:39.219Z,19.60
2019-05-06T03:59:29.208Z,14.03
2019-05-06T04:02:00.006Z,14.50
2019-05-06T04:07:45.851Z,14.28
2019-05-06T04:23:33.153Z,14.28
2019-05-06T04:26:46.087Z,13.40
2019-05-06T04:29:13.980Z,14.33
2019-05-06T04:34:57.867Z,19.73
2019-05-06T04:37:28.738Z,16.52
2019-05-06T04:40:00.224Z,14.50
2019-05-06T04:42:34.139Z,16.23
2019-05-06T04:45:04.594Z,14.93
2019-05-06T04:47:35.698Z,14.38
2019-05-06T04:50:07.593Z,15.00
2019-05-06T05:11:42.381Z,14.40
2019-05-06T05:14:32.863Z,15.25
2019-05-06T05:17:17.739Z,14.75
2019-05-06T05:19:48.451Z,15.55
2019-05-06T05:22:22.196Z,14.73
2019-05-06T05:24:53.153Z,15.60
2019-05-06T05:27:32.941Z,14.70
2019-05-06T05:30:03.919Z,15.65
2019-05-06T05:32:35.837Z,14.80
2019-05-06T05:35:12.714Z,14.58
2019-05-06T05:37:53.212Z,15.23
2019-05-06T05:40:36.666Z,15.23
2019-05-06T05:43:08.506Z,14.20
2019-05-06T05:45:39.778Z,14.70
2019-05-06T05:48:32.947Z,14.23
2019-05-06T05:51:03.753Z,14.13
2019-05-06T05:53:37.038Z,14.43
2019-05-06T05:56:07.899Z,14.50
2019-05-06T05:58:38.731Z,13.83
2019-05-06T06:01:12.727Z,14.05
2019-05-06T06:03:53.778Z,15.20
2019-05-06T06:06:24.512Z,14.70
2019-05-06T06:08:55.182Z,14.43
2019-05-06T06:11:34.484Z,14.45
2019-05-06T06:14:06.877Z,13.38
2019-05-06T06:16:45.274Z,13.88
2019-05-06T06:19:29.559Z,14.10
2019-05-06T06:25:17.373Z,13.15
2019-05-06T06:28:02.667Z,14.75
2019-05-06T06:30:47.197Z,13.38
2019-05-06T06:33:18.159Z,14.30
2019-05-06T06:36:06.652Z,14.58
2019-05-06T06:38:42.927Z,13.48
2019-05-06T06:41:15.631Z,14.13
2019-05-06T06:43:48.651Z,14.35
2019-05-06T06:46:19.412Z,13.40
2019-05-06T06:49:09.277Z,13.55
2019-05-06T06:51:42.499Z,14.65
2019-05-06T06:54:13.452Z,13.55
2019-05-06T06:57:05.091Z,13.18
2019-05-06T06:59:35.369Z,12.00
2019-05-06T07:02:17.083Z,13.15
2019-05-06T07:05:27.639Z,13.53
2019-05-06T07:07:49.870Z,15.70
2019-05-06T07:10:38.691Z,13.03
2019-05-06T07:13:09.692Z,12.90
2019-05-06T07:15:42.647Z,11.10
2019-05-06T07:18:14.242Z,13.20
2019-05-06T07:20:58.947Z,13.08
2019-05-06T07:23:32.793Z,12.78
2019-05-06T07:26:12.360Z,12.75
2019-05-06T07:29:05.976Z,12.98
2019-05-06T07:31:35.442Z,13.10
2019-05-06T07:34:06.422Z,12.40
2019-05-06T07:36:37.460Z,13.35
2019-05-06T07:39:14.768Z,13.75
2019-05-06T07:41:46.065Z,13.20
2019-05-06T07:44:35.027Z,13.90
2019-05-06T07:47:13.304Z,13.80
2019-05-06T07:49:43.282Z,14.03
2019-05-06T07:52:17.479Z,13.60
2019-05-06T07:54:48.315Z,13.83
2019-05-06T07:57:19.015Z,13.28
2019-05-06T07:59:49.592Z,13.75
2019-05-06T08:02:22.968Z,13.85
2019-05-06T08:05:07.498Z,14.43
2019-05-06T08:07:39.337Z,12.60
2019-05-06T08:10:13.715Z,13.40
2019-05-06T08:12:45.441Z,13.55
2019-05-06T08:15:17.920Z,13.62
2019-05-06T08:17:48.870Z,14.90
2019-05-06T08:20:42.639Z,14.13
2019-05-06T08:23:14.356Z,13.95
2019-05-06T08:25:46.452Z,13.40
2019-05-06T08:28:17.110Z,13.18
2019-05-06T08:30:53.032Z,14.25
2019-05-06T08:33:27.669Z,13.83
2019-05-06T08:41:59.314Z,13.43
2019-05-06T08:44:32.269Z,13.50
2019-05-06T08:47:07.749Z,13.45
2019-05-06T08:52:47.111Z,13.00
2019-05-06T08:55:19.309Z,12.82
2019-05-06T09:01:02.812Z,12.58
2019-05-06T09:03:36.030Z,12.58
2019-05-06T09:06:07.590Z,12.82
2019-05-06T09:08:57.822Z,12.68
2019-05-06T09:33:58.309Z,13.10
2019-05-06T09:43:14.436Z,12.35
2019-05-06T09:45:47.334Z,14.03
2019-05-06T09:48:19.399Z,12.73
2019-05-06T09:50:50.429Z,12.65
2019-05-06T09:53:28.502Z,13.22
2019-05-06T09:56:06.856Z,11.90
2019-05-06T09:58:38.990Z,11.97
2019-05-06T10:01:13.808Z,12.18
2019-05-06T10:03:45.362Z,11.83
2019-05-06T10:06:17.704Z,11.85
2019-05-06T10:12:18.179Z,12.47
2019-05-06T10:14:48.942Z,12.90
2019-05-06T10:17:19.752Z,12.75
2019-05-06T10:19:51.943Z,12.65
2019-05-06T10:22:24.894Z,13.03
2019-05-06T10:24:55.584Z,13.22
2019-05-06T10:27:26.242Z,13.10
2019-05-06T10:29:58.273Z,13.40
2019-05-06T10:32:52.705Z,12.75
2019-05-06T10:35:26.036Z,13.30
2019-05-06T10:38:14.289Z,13.45
2019-05-06T10:41:01.017Z,14.68
2019-05-06T10:43:46.947Z,12.80
2019-05-06T10:46:17.646Z,13.08
2019-05-06T10:48:48.408Z,13.68
2019-05-06T10:51:26.899Z,13.93
2019-05-06T10:53:59.707Z,13.03
2019-05-06T10:56:32.162Z,12.80
2019-05-06T10:59:04.131Z,12.55
2019-05-06T11:01:38.906Z,13.30
2019-05-06T11:04:09.323Z,13.58
2019-05-06T11:06:39.747Z,14.10
2019-05-06T11:09:13.373Z,12.73
2019-05-06T11:11:43.876Z,13.35
2019-05-06T11:14:14.705Z,13.88
2019-05-06T11:16:45.729Z,14.13
2019-05-06T11:19:16.586Z,14.78
2019-05-06T11:21:48.724Z,13.68
2019-05-06T11:24:22.973Z,13.30
2019-05-06T11:26:53.414Z,13.65
2019-05-06T11:29:28.529Z,13.80
2019-05-06T11:32:06.898Z,13.53
2019-05-06T11:34:48.046Z,13.53
2019-05-06T11:37:42.292Z,14.35
2019-05-06T11:40:01.285Z,13.60
2019-05-06T11:42:35.274Z,13.72
2019-05-06T11:45:04.803Z,14.23
2019-05-06T11:47:35.554Z,13.53
2019-05-06T11:50:08.051Z,13.03
2019-05-06T11:52:46.436Z,13.43
2019-05-06T11:55:28.930Z,13.10
2019-05-06T11:57:49.350Z,13.15
2019-05-06T12:00:23.812Z,12.30
2019-05-06T12:02:53.562Z,13.45
2019-05-06T12:05:23.958Z,12.78
2019-05-06T12:08:07.237Z,12.95
2019-05-06T12:10:26.434Z,13.28
2019-05-06T12:12:57.891Z,13.62
2019-05-06T12:15:28.734Z,12.88
2019-05-06T12:18:03.051Z,13.38
2019-05-06T12:20:32.978Z,12.73
2019-05-06T12:23:04.537Z,13.08
2019-05-06T12:25:35.327Z,13.00
2019-05-06T12:28:07.361Z,13.20
2019-05-06T12:30:38.232Z,13.80
2019-05-06T12:33:32.739Z,12.20
2019-05-06T12:39:17.474Z,13.13
2019-05-06T12:41:53.256Z,13.08
2019-05-06T12:44:23.700Z,13.25
2019-05-06T12:46:59.898Z,13.20
2019-05-06T12:49:33.761Z,13.00
2019-05-06T12:52:06.605Z,13.15
2019-05-06T12:54:42.930Z,13.00
2019-05-06T12:57:14.340Z,12.53
2019-05-06T13:02:35.754Z,12.00
2019-05-06T13:05:08.708Z,12.63
2019-05-06T13:07:45.760Z,10.65
2019-05-06T13:10:17.720Z,11.50
2019-05-06T13:12:50.298Z,11.70
2019-05-06T13:15:24.335Z,12.28
2019-05-06T13:18:14.522Z,11.97
2019-05-06T13:20:49.967Z,12.50
2019-05-06T13:23:25.760Z,12.15
2019-05-06T13:25:55.454Z,12.70
2019-05-06T13:28:30.545Z,12.75
2019-05-06T13:31:16.464Z,12.93
2019-05-06T13:33:48.654Z,12.53
2019-05-06T13:36:22.399Z,12.53
2019-05-06T13:39:08.341Z,12.55
2019-05-06T13:41:27.301Z,13.40
2019-05-06T13:44:13.362Z,13.25
2019-05-06T13:49:22.839Z,12.73
2019-05-06T13:51:55.407Z,12.80
2019-05-06T13:54:26.340Z,12.65
2019-05-06T13:56:59.055Z,13.08
2019-05-06T13:59:30.796Z,13.75
2019-05-06T14:02:16.387Z,12.80
2019-05-06T14:04:49.219Z,12.23
2019-05-06T14:07:20.320Z,12.20
2019-05-06T14:09:53.253Z,12.43
2019-05-06T14:12:23.910Z,12.50
2019-05-06T14:14:56.778Z,12.70
2019-05-06T14:17:29.117Z,12.33
2019-05-06T14:20:02.435Z,12.50
2019-05-06T14:22:32.739Z,12.85
2019-05-06T14:25:26.538Z,12.45
2019-05-06T14:28:00.073Z,12.70
2019-05-06T14:30:32.670Z,12.33
2019-05-06T14:33:03.854Z,12.33
2019-05-06T14:35:35.063Z,12.15
2019-05-06T14:38:06.253Z,12.80
2019-05-06T14:40:56.750Z,12.45
2019-05-06T14:43:27.619Z,12.47
2019-05-06T14:46:19.693Z,11.75
2019-05-06T14:48:53.167Z,12.47
2019-05-06T14:51:24.060Z,12.43
2019-05-06T14:53:55.107Z,11.55
2019-05-06T14:56:32.045Z,12.63
2019-05-06T14:59:07.164Z,11.97
2019-05-06T15:01:38.895Z,12.30
2019-05-06T15:04:12.498Z,12.65
2019-05-06T15:06:44.652Z,12.25
2019-05-06T15:09:15.648Z,12.23
2019-05-06T15:11:46.417Z,12.28
2019-05-06T15:14:17.565Z,12.50
2019-05-06T15:16:48.350Z,12.10
2019-05-06T15:19:29.315Z,12.25
2019-05-06T15:22:02.117Z,12.55
2019-05-06T15:24:32.748Z,12.20
2019-05-06T15:27:03.843Z,11.43
2019-05-06T15:29:53.479Z,12.03
2019-05-06T15:32:29.035Z,11.70
2019-05-06T15:35:03.881Z,11.83
2019-05-06T15:37:36.245Z,11.53
2019-05-06T15:40:08.342Z,12.55
2019-05-06T15:42:39.209Z,11.80
2019-05-06T15:45:12.441Z,11.83
2019-05-06T15:47:42.965Z,11.97
2019-05-06T15:50:15.151Z,11.50
2019-05-06T15:52:46.426Z,10.82
2019-05-06T15:55:17.444Z,12.20
2019-05-06T15:57:48.335Z,11.73
2019-05-06T16:00:22.580Z,11.40
2019-05-06T16:02:54.729Z,11.50
2019-05-06T16:05:26.701Z,11.30
2019-05-06T16:07:59.121Z,11.85
2019-05-06T16:10:29.859Z,12.28
2019-05-06T16:13:02.379Z,12.20
2019-05-06T16:15:33.568Z,12.30
2019-05-06T16:18:04.850Z,12.30
2019-05-06T16:20:36.028Z,12.50
2019-05-06T16:23:14.416Z,12.13
2019-05-06T16:25:45.790Z,12.40
2019-05-06T16:28:16.500Z,12.70
2019-05-06T16:30:48.370Z,12.10
2019-05-06T16:33:19.237Z,12.13
2019-05-06T16:35:52.068Z,12.23
2019-05-06T16:38:22.972Z,12.20
2019-05-06T16:41:09.101Z,12.65
2019-05-06T16:43:26.142Z,12.35
2019-05-06T16:45:56.803Z,12.85
2019-05-06T16:48:27.535Z,12.53
2019-05-06T16:50:58.320Z,12.68
2019-05-06T16:53:32.376Z,12.63
2019-05-06T16:56:19.330Z,12.07
2019-05-06T16:58:52.563Z,12.68
2019-05-06T17:01:23.508Z,13.10
2019-05-06T17:03:58.077Z,12.63
2019-05-06T17:06:32.673Z,12.98
2019-05-06T17:09:17.316Z,12.25
2019-05-06T17:11:37.855Z,13.13
2019-05-06T17:14:08.498Z,13.43
2019-05-06T17:16:42.327Z,13.28
2019-05-06T17:19:12.954Z,12.68
2019-05-06T17:21:44.104Z,13.03
2019-05-06T17:24:14.966Z,13.58
2019-05-06T17:26:45.837Z,12.75
2019-05-06T17:32:41.902Z,12.55
2019-05-06T17:35:12.646Z,11.63
2019-05-06T17:37:52.715Z,12.18
2019-05-06T17:40:23.935Z,12.10
2019-05-06T17:42:54.603Z,12.47
2019-05-06T17:45:57.366Z,12.98
2019-05-06T17:48:33.380Z,12.78
2019-05-06T17:51:13.639Z,12.37
2019-05-06T17:53:48.673Z,12.68
2019-05-06T17:58:49.537Z,12.40
2019-05-06T18:01:23.241Z,13.68
2019-05-06T18:03:54.001Z,12.90
2019-05-06T18:06:24.781Z,13.30
2019-05-06T18:08:55.385Z,14.07
2019-05-06T18:11:26.039Z,14.58
2019-05-06T18:13:56.770Z,14.58
2019-05-06T18:16:27.412Z,14.45
2019-05-06T18:18:58.140Z,14.05
2019-05-06T18:21:28.747Z,14.80
2019-05-06T18:23:59.824Z,14.50
2019-05-06T18:26:33.374Z,14.25
2019-05-06T18:29:03.726Z,13.50
2019-05-06T18:31:34.390Z,13.28
2019-05-06T18:34:06.464Z,13.43
2019-05-06T18:36:37.509Z,13.43
2019-05-06T18:39:25.586Z,13.22
2019-05-06T18:42:11.700Z,14.25
2019-05-06T18:44:29.894Z,13.22
2019-05-06T18:47:02.634Z,12.93
2019-05-06T18:49:33.776Z,12.65
2019-05-06T18:52:05.017Z,13.85
2019-05-06T18:54:35.945Z,11.90
2019-05-06T18:57:07.662Z,13.35
2019-05-06T18:59:38.413Z,13.32
2019-05-06T19:02:09.017Z,13.40
2019-05-06T19:04:47.088Z,13.13
2019-05-06T19:07:17.649Z,12.93
2019-05-06T19:12:41.252Z,12.95
2019-05-06T19:15:12.619Z,12.95
2019-05-06T19:17:44.392Z,12.33
2019-05-06T19:20:15.260Z,12.20
2019-05-06T19:22:46.028Z,13.13
2019-05-06T19:25:17.070Z,12.80
2019-05-06T19:27:47.862Z,11.97
2019-05-06T19:30:19.639Z,13.08
2019-05-06T19:32:50.247Z,12.95
2019-05-06T19:35:20.937Z,13.55
2019-05-06T19:37:51.495Z,12.58
2019-05-06T19:40:23.994Z,12.68
2019-05-06T19:45:43.876Z,12.68
2019-05-06T19:48:14.640Z,14.03
2019-05-06T19:50:45.413Z,14.23
2019-05-06T19:53:16.168Z,13.38
2019-05-06T19:55:47.122Z,13.88
2019-05-06T20:01:08.829Z,13.48
2019-05-06T20:03:39.639Z,12.80
2019-05-06T20:06:22.602Z,14.28
2019-05-06T20:08:54.481Z,13.22
2019-05-06T20:11:26.688Z,15.30
2019-05-06T20:13:57.399Z,13.48
2019-05-06T20:16:28.124Z,13.25
2019-05-06T20:18:58.906Z,13.43
2019-05-06T20:21:29.465Z,14.23
2019-05-06T20:24:02.160Z,14.33
2019-05-06T20:26:32.688Z,12.68
2019-05-06T20:29:03.390Z,13.45
2019-05-06T20:31:34.096Z,12.93
2019-05-06T20:34:04.765Z,13.25
2019-05-06T20:36:35.547Z,13.83
2019-05-06T20:39:12.430Z,14.20
2019-05-06T20:41:43.322Z,13.90
2019-05-06T20:44:14.274Z,13.55
2019-05-06T20:46:45.062Z,13.62
2019-05-06T20:49:16.036Z,14.53
2019-05-06T20:51:46.813Z,14.25
2019-05-06T20:54:17.574Z,13.58
2019-05-06T20:56:48.458Z,12.80
2019-05-06T20:59:19.522Z,13.72
2019-05-06T21:01:50.255Z,13.25
2019-05-06T21:04:22.872Z,14.68
2019-05-06T21:06:53.109Z,14.15
2019-05-06T21:09:23.847Z,13.40
2019-05-06T21:11:54.510Z,13.68
2019-05-06T21:14:25.185Z,13.68
2019-05-06T21:16:56.675Z,13.80
2019-05-06T21:19:44.163Z,15.43
2019-05-06T21:22:15.738Z,14.60
2019-05-06T21:24:46.517Z,14.45
2019-05-06T21:27:17.526Z,13.68
2019-05-06T21:29:50.326Z,14.55
2019-05-06T21:32:21.983Z,14.30
2019-05-06T21:34:52.798Z,14.05
2019-05-06T21:37:23.507Z,13.75
2019-05-06T21:39:54.180Z,14.18
2019-05-06T21:42:24.890Z,14.20
2019-05-06T21:44:55.697Z,14.50
2019-05-06T21:47:26.502Z,14.38
2019-05-06T21:49:57.249Z,14.40
2019-05-06T21:52:39.274Z,14.38
2019-05-06T21:55:02.389Z,14.68
2019-05-06T21:57:32.101Z,15.48
2019-05-06T22:00:03.330Z,14.35
2019-05-06T22:02:33.919Z,15.23
2019-05-06T22:05:10.307Z,15.08
2019-05-06T22:07:43.673Z,14.58
2019-05-06T22:10:15.296Z,15.38
2019-05-06T22:12:46.096Z,14.75
2019-05-06T22:15:16.779Z,14.85
2019-05-06T22:17:47.607Z,14.50
2019-05-06T22:20:18.362Z,14.18
2019-05-06T22:22:49.056Z,14.15
2019-05-06T22:25:21.975Z,14.18
2019-05-06T22:27:52.022Z,15.18
2019-05-06T22:30:23.905Z,15.18
2019-05-06T22:32:54.576Z,15.15
2019-05-06T22:35:25.346Z,15.58
2019-05-06T22:37:56.006Z,14.90
2019-05-06T22:40:26.788Z,15.38
2019-05-06T22:42:57.445Z,15.30
2019-05-06T22:45:28.110Z,15.75
2019-05-06T22:47:58.857Z,15.25
2019-05-06T22:50:29.639Z,14.98
2019-05-06T22:53:02.221Z,15.38
2019-05-06T22:55:32.931Z,14.90
2019-05-06T22:58:04.085Z,14.80
2019-05-06T23:00:36.566Z,14.63
2019-05-06T23:03:08.934Z,14.50
2019-05-06T23:05:39.554Z,13.98
2019-05-06T23:08:12.170Z,14.68
2019-05-06T23:10:43.460Z,15.08
2019-05-06T23:13:23.331Z,14.95
2019-05-06T23:15:54.075Z,14.87
2019-05-06T23:18:24.652Z,14.93
2019-05-06T23:20:55.380Z,15.05
2019-05-06T23:23:26.825Z,15.03
2019-05-06T23:26:15.156Z,15.18
2019-05-06T23:28:46.417Z,14.80
2019-05-06T23:31:17.129Z,13.48
2019-05-06T23:33:47.870Z,14.25
2019-05-06T23:36:18.650Z,13.45
2019-05-06T23:39:25.069Z,14.00
2019-05-06T23:42:32.385Z,14.40
2019-05-06T23:45:38.960Z,14.25
2019-05-06T23:48:45.436Z,14.40
2019-05-06T23:51:53.205Z,13.53
2019-05-06T23:54:59.665Z,13.58
2019-05-06T23:57:28.637Z,15.03
2019-05-06T23:59:59.387Z,14.45
